createdAt,value
2023-04-02T00:01:01.664Z,0.98
2023-04-02T00:03:53.989Z,0.50
2023-04-02T00:06:44.735Z,0.82
2023-04-02T00:09:36.108Z,0.63
2023-04-02T00:12:21.799Z,0.93
2023-04-02T00:15:13.417Z,0.82
2023-04-02T00:18:00.387Z,0.75
2023-04-02T00:21:08.305Z,0.70
2023-04-02T00:23:56.307Z,0.50
2023-04-02T00:26:52.861Z,1.02
2023-04-02T00:29:55.700Z,0.50
2023-04-02T00:32:42.933Z,0.60
2023-04-02T00:35:31.280Z,0.40
2023-04-02T00:38:22.845Z,0.55
2023-04-02T00:41:08.555Z,0.57
2023-04-02T00:43:57.641Z,0.75
2023-04-02T00:46:49.812Z,0.50
2023-04-02T00:49:38.938Z,0.85
2023-04-02T00:52:28.084Z,0.40
2023-04-02T00:55:40.584Z,0.60
2023-04-02T00:58:35.891Z,0.43
2023-04-02T01:01:54.452Z,0.55
2023-04-02T01:04:40.171Z,0.47
2023-04-02T01:07:56.530Z,0.45
2023-04-02T01:11:03.778Z,0.70
2023-04-02T01:14:14.667Z,0.45
2023-04-02T01:17:54.844Z,0.47
2023-04-02T01:21:22.031Z,0.70
2023-04-02T01:24:14.697Z,0.55
2023-04-02T01:27:16.583Z,0.60
2023-04-02T01:30:07.483Z,0.80
2023-04-02T01:32:54.363Z,0.60
2023-04-02T01:35:44.844Z,0.70
2023-04-02T01:39:08.794Z,0.40
2023-04-02T01:42:03.737Z,0.45
2023-04-02T01:44:52.566Z,0.80
2023-04-02T01:47:39.532Z,0.60
2023-04-02T01:50:37.608Z,0.40
2023-04-02T01:53:26.074Z,0.68
2023-04-02T01:56:11.771Z,0.80
2023-04-02T01:58:58.915Z,0.57
2023-04-02T02:02:00.749Z,0.85
2023-04-02T02:04:46.564Z,0.57
2023-04-02T02:07:32.595Z,0.60
2023-04-02T02:10:24.365Z,0.88
2023-04-02T02:13:14.911Z,0.45
2023-04-02T02:16:03.139Z,0.95
2023-04-02T02:18:53.620Z,0.57
2023-04-02T02:21:43.677Z,0.60
2023-04-02T02:24:33.467Z,1.25
2023-04-02T02:27:25.674Z,0.40
2023-04-02T02:30:45.247Z,0.50
2023-04-02T02:33:42.448Z,0.80
2023-04-02T02:36:40.221Z,0.40
2023-04-02T02:39:34.798Z,1.30
2023-04-02T02:42:24.746Z,0.50
2023-04-02T02:45:18.267Z,0.47
2023-04-02T02:48:10.069Z,0.70
2023-04-02T02:50:56.495Z,0.50
2023-04-02T02:54:03.741Z,0.70
2023-04-02T02:56:56.419Z,0.70
2023-04-02T02:59:43.365Z,0.68
2023-04-02T03:02:29.435Z,0.63
2023-04-02T03:05:20.809Z,0.68
2023-04-02T03:08:22.347Z,0.50
2023-04-02T03:11:19.963Z,0.45
2023-04-02T03:14:22.796Z,0.65
2023-04-02T03:17:18.892Z,0.50
2023-04-02T03:20:12.142Z,0.45
2023-04-02T03:23:22.819Z,0.77
2023-04-02T03:26:18.712Z,0.60
2023-04-02T03:29:27.329Z,0.75
2023-04-02T03:32:28.839Z,0.40
2023-04-02T03:35:25.703Z,0.43
2023-04-02T03:38:21.068Z,0.65
2023-04-02T03:41:09.700Z,0.60
2023-04-02T03:44:00.782Z,0.65
2023-04-02T03:46:57.399Z,0.88
2023-04-02T03:49:58.871Z,0.40
2023-04-02T03:52:45.602Z,0.80
2023-04-02T03:55:37.801Z,0.70
2023-04-02T03:58:35.021Z,0.60
2023-04-02T04:01:35.697Z,0.47
2023-04-02T04:04:23.002Z,0.50
2023-04-02T04:07:16.395Z,0.32
2023-04-02T04:10:04.698Z,0.55
2023-04-02T04:12:52.145Z,0.68
2023-04-02T04:15:46.218Z,0.32
2023-04-02T04:18:47.777Z,0.52
2023-04-02T04:21:38.227Z,0.50
2023-04-02T04:24:45.583Z,0.47
2023-04-02T04:27:35.561Z,0.63
2023-04-02T04:30:42.445Z,0.40
2023-04-02T04:33:40.008Z,0.60
2023-04-02T04:36:36.131Z,0.30
2023-04-02T04:39:37.471Z,0.40
2023-04-02T04:42:28.450Z,0.50
2023-04-02T04:45:30.040Z,0.35
2023-04-02T04:48:20.917Z,0.30
2023-04-02T04:51:17.300Z,0.50
2023-04-02T04:54:03.759Z,0.85
2023-04-02T04:56:57.969Z,0.65
2023-04-02T04:59:58.874Z,0.60
2023-04-02T05:03:07.074Z,0.50
2023-04-02T05:05:54.077Z,0.60
2023-04-02T05:08:45.535Z,0.45
2023-04-02T05:11:49.305Z,0.60
2023-04-02T05:14:54.680Z,0.40
2023-04-02T05:18:15.971Z,0.60
2023-04-02T05:21:14.649Z,9.98
2023-04-02T05:24:01.103Z,12.35
2023-04-02T05:26:50.687Z,5.53
2023-04-02T05:29:40.295Z,1.63
2023-04-02T05:32:31.923Z,0.68
2023-04-02T05:35:20.769Z,1.10
2023-04-02T05:38:07.204Z,0.30
2023-04-02T05:41:03.125Z,0.50
2023-04-02T05:43:59.168Z,0.35
2023-04-02T05:46:56.479Z,0.50
2023-04-02T05:50:12.702Z,0.40
2023-04-02T05:53:29.112Z,0.73
2023-04-02T05:56:23.741Z,0.60
2023-04-02T05:59:23.228Z,0.40
2023-04-02T06:02:31.739Z,0.60
2023-04-02T06:05:25.263Z,0.40
2023-04-02T06:08:35.490Z,0.77
2023-04-02T06:11:27.479Z,0.50
2023-04-02T06:14:14.269Z,0.70
2023-04-02T06:17:00.557Z,0.93
2023-04-02T06:19:48.084Z,1.15
2023-04-02T06:22:40.648Z,1.30
2023-04-02T06:25:54.478Z,1.33
2023-04-02T06:28:49.822Z,0.95
2023-04-02T06:31:45.885Z,0.47
2023-04-02T06:34:38.296Z,0.80
2023-04-02T06:37:40.695Z,0.50
2023-04-02T06:40:58.941Z,1.15
2023-04-02T06:44:07.522Z,0.60
2023-04-02T06:47:23.428Z,1.02
2023-04-02T06:50:23.464Z,0.90
2023-04-02T06:53:20.831Z,0.70
2023-04-02T06:56:18.857Z,0.60
2023-04-02T06:59:07.952Z,0.70
2023-04-02T07:01:59.427Z,1.00
2023-04-02T07:04:45.371Z,1.25
2023-04-02T07:07:31.316Z,0.70
2023-04-02T07:10:20.879Z,1.00
2023-04-02T07:13:07.200Z,1.08
2023-04-02T07:15:54.944Z,0.93
2023-04-02T07:18:41.267Z,1.20
2023-04-02T07:21:30.992Z,0.98
2023-04-02T07:24:17.117Z,0.60
2023-04-02T07:27:02.645Z,0.43
2023-04-02T07:29:48.104Z,0.75
2023-04-02T07:32:33.934Z,0.52
2023-04-02T07:35:19.548Z,1.05
2023-04-02T07:38:05.070Z,0.75
2023-04-02T07:40:51.044Z,1.25
2023-04-02T07:43:37.872Z,0.77
2023-04-02T07:46:23.632Z,1.02
2023-04-02T07:49:09.418Z,0.90
2023-04-02T07:51:55.307Z,1.00
2023-04-02T07:54:40.794Z,1.55
2023-04-02T07:57:27.582Z,0.73
2023-04-02T08:00:13.743Z,0.75
2023-04-02T08:02:59.545Z,8.98
2023-04-02T08:05:56.777Z,3.03
2023-04-02T08:08:42.574Z,1.35
2023-04-02T08:11:29.767Z,1.08
2023-04-02T08:14:17.344Z,0.95
2023-04-02T08:17:02.941Z,1.42
2023-04-02T08:19:54.723Z,1.50
2023-04-02T08:22:41.071Z,1.38
2023-04-02T08:25:27.556Z,1.23
2023-04-02T08:28:13.332Z,1.15
2023-04-02T08:30:59.280Z,0.90
2023-04-02T08:33:45.143Z,1.27
2023-04-02T08:36:35.287Z,1.83
2023-04-02T08:39:21.056Z,0.90
2023-04-02T08:42:13.702Z,1.35
2023-04-02T08:45:35.567Z,2.10
2023-04-02T08:48:21.787Z,1.70
2023-04-02T08:51:14.854Z,1.10
2023-04-02T08:54:09.072Z,0.80
2023-04-02T08:57:30.949Z,1.30
2023-04-02T09:00:43.204Z,1.05
2023-04-02T09:03:50.565Z,1.55
2023-04-02T09:06:36.983Z,1.90
2023-04-02T09:09:23.993Z,1.65
2023-04-02T09:12:21.656Z,2.05
2023-04-02T09:15:24.820Z,1.33
2023-04-02T09:18:16.867Z,1.70
2023-04-02T09:21:32.202Z,1.48
2023-04-02T09:24:18.031Z,1.83
2023-04-02T09:27:07.142Z,1.83
2023-04-02T09:30:14.653Z,1.45
2023-04-02T09:33:04.240Z,2.40
2023-04-02T09:35:49.843Z,2.28
2023-04-02T09:38:35.941Z,1.55
2023-04-02T09:41:22.633Z,2.15
2023-04-02T09:44:20.227Z,2.00
2023-04-02T09:47:25.289Z,1.80
2023-04-02T09:50:34.147Z,1.13
2023-04-02T09:53:33.596Z,1.52
2023-04-02T09:56:23.218Z,1.30
2023-04-02T09:59:18.196Z,1.13
2023-04-02T10:02:05.644Z,1.67
2023-04-02T10:04:51.771Z,1.63
2023-04-02T10:07:39.053Z,1.20
2023-04-02T10:10:37.615Z,1.08
2023-04-02T10:13:29.042Z,1.92
2023-04-02T10:16:23.340Z,1.92
2023-04-02T10:19:38.785Z,1.70
2023-04-02T10:22:24.208Z,0.98
2023-04-02T10:25:17.676Z,2.03
2023-04-02T10:28:06.537Z,1.58
2023-04-02T10:31:08.686Z,1.45
2023-04-02T10:34:03.154Z,2.20
2023-04-02T10:36:59.643Z,1.40
2023-04-02T10:39:50.531Z,1.88
2023-04-02T10:43:09.089Z,1.85
2023-04-02T10:46:18.887Z,1.53
2023-04-02T10:53:11.736Z,1.60
2023-04-02T10:56:56.781Z,1.77
2023-04-02T11:31:20.767Z,2.38
2023-04-02T11:34:35.442Z,1.65
2023-04-02T11:46:45.511Z,1.80
2023-04-02T11:49:32.928Z,1.70
2023-04-02T11:53:00.245Z,1.92
2023-04-02T11:56:07.150Z,1.77
2023-04-02T11:59:29.830Z,1.52
2023-04-02T12:11:15.477Z,2.13
2023-04-02T12:14:55.411Z,1.52
2023-04-02T12:22:42.257Z,1.10
2023-04-02T12:25:32.210Z,1.77
2023-04-02T12:28:18.966Z,1.52
2023-04-02T12:31:14.279Z,2.17
2023-04-02T12:34:01.855Z,2.20
2023-04-02T12:40:55.601Z,1.52
2023-04-02T12:43:42.009Z,2.17
2023-04-02T12:46:31.185Z,3.05
2023-04-02T12:49:42.204Z,2.88
2023-04-02T12:52:29.866Z,1.48
2023-04-02T12:55:20.027Z,5.20
2023-04-02T13:02:23.605Z,5.60
2023-04-02T13:05:10.125Z,3.83
2023-04-02T13:07:55.718Z,3.63
2023-04-02T13:10:43.269Z,2.22
2023-04-02T13:13:34.615Z,5.03
2023-04-02T13:16:20.483Z,2.97
2023-04-02T13:19:28.182Z,3.00
2023-04-02T13:22:42.860Z,2.72
2023-04-02T13:25:35.486Z,3.40
2023-04-02T13:28:22.125Z,3.17
2023-04-02T13:31:15.824Z,3.40
2023-04-02T13:38:22.900Z,4.70
2023-04-02T13:41:48.054Z,9.52
2023-04-02T13:44:39.711Z,5.40
2023-04-02T13:47:25.643Z,3.92
2023-04-02T13:50:17.061Z,2.42
2023-04-02T13:56:33.812Z,2.13
2023-04-02T13:59:19.342Z,4.97
2023-04-02T14:02:10.675Z,6.07
2023-04-02T14:05:06.123Z,3.25
2023-04-02T14:08:09.619Z,3.08
2023-04-02T14:11:31.570Z,1.52
2023-04-02T14:14:23.062Z,1.55
2023-04-02T14:17:21.164Z,2.38
2023-04-02T14:23:30.577Z,1.33
2023-04-02T14:26:32.936Z,1.95
2023-04-02T14:29:29.326Z,3.40
2023-04-02T14:32:26.089Z,2.53
2023-04-02T14:35:43.081Z,2.30
2023-04-02T14:38:34.927Z,1.63
2023-04-02T14:41:45.566Z,1.67
2023-04-02T14:44:39.129Z,2.83
2023-04-02T14:47:31.719Z,1.88
2023-04-02T14:50:30.361Z,2.20
2023-04-02T14:58:15.946Z,2.42
2023-04-02T15:01:17.637Z,2.85
2023-04-02T15:04:11.557Z,2.47
2023-04-02T15:07:05.073Z,2.85
2023-04-02T15:10:02.729Z,2.92
2023-04-02T15:12:49.841Z,3.08
2023-04-02T15:15:50.912Z,4.78
2023-04-02T15:18:36.548Z,2.90
2023-04-02T15:21:31.496Z,2.22
2023-04-02T15:24:40.650Z,2.10
2023-04-02T15:27:58.449Z,2.95
2023-04-02T15:30:46.232Z,2.72
2023-04-02T15:33:38.204Z,2.78
2023-04-02T15:36:56.239Z,2.53
2023-04-02T15:39:57.078Z,2.25
2023-04-02T15:43:27.907Z,2.55
2023-04-02T15:46:38.269Z,2.45
2023-04-02T15:49:48.531Z,2.40
2023-04-02T15:52:59.826Z,2.83
2023-04-02T15:56:08.481Z,3.70
2023-04-02T15:59:12.309Z,2.03
2023-04-02T16:02:15.880Z,1.92
2023-04-02T16:05:08.393Z,1.70
2023-04-02T16:07:54.443Z,2.08
2023-04-02T16:10:43.060Z,3.65
2023-04-02T16:13:29.458Z,2.55
2023-04-02T16:16:22.806Z,1.92
2023-04-02T16:19:41.181Z,1.83
2023-04-02T16:22:29.688Z,2.25
2023-04-02T16:25:19.613Z,3.38
2023-04-02T16:28:24.297Z,2.42
2023-04-02T16:31:19.424Z,1.55
2023-04-02T16:34:23.266Z,4.32
2023-04-02T16:37:34.973Z,2.28
2023-04-02T16:40:54.330Z,3.05
2023-04-02T16:43:49.496Z,2.70
2023-04-02T16:47:00.909Z,2.70
2023-04-02T16:50:04.066Z,3.03
2023-04-02T16:53:08.281Z,3.20
2023-04-02T16:56:28.332Z,2.75
2023-04-02T16:59:34.394Z,2.97
2023-04-02T17:02:37.194Z,2.58
2023-04-02T17:05:26.366Z,3.10
2023-04-02T17:08:25.158Z,4.10
2023-04-02T17:11:23.228Z,2.88
2023-04-02T17:14:23.370Z,1.85
2023-04-02T17:17:12.390Z,3.15
2023-04-02T17:20:00.873Z,3.47
2023-04-02T17:22:47.968Z,2.08
2023-04-02T17:25:45.997Z,3.65
2023-04-02T17:28:42.198Z,3.45
2023-04-02T17:31:34.349Z,3.65
2023-04-02T17:34:24.312Z,3.25
2023-04-02T17:37:22.735Z,2.50
2023-04-02T17:40:35.266Z,3.40
2023-04-02T17:43:37.554Z,3.88
2023-04-02T17:46:41.232Z,2.45
2023-04-02T17:49:39.337Z,3.58
2023-04-02T17:52:46.953Z,3.83
2023-04-02T17:55:54.322Z,3.03
2023-04-02T17:59:05.410Z,3.63
2023-04-02T18:02:15.749Z,3.75
2023-04-02T18:05:04.885Z,4.32
2023-04-02T18:08:12.556Z,2.65
2023-04-02T18:11:14.809Z,1.95
2023-04-02T18:14:18.687Z,1.92
2023-04-02T18:17:27.574Z,2.33
2023-04-02T18:20:48.279Z,2.67
2023-04-02T18:23:45.532Z,1.98
2023-04-02T18:26:57.669Z,1.70
2023-04-02T18:30:05.608Z,2.58
2023-04-02T18:33:25.274Z,2.25
2023-04-02T18:36:23.029Z,1.50
2023-04-02T18:39:29.659Z,1.90
2023-04-02T18:43:01.785Z,2.65
2023-04-02T18:46:16.448Z,1.40
2023-04-02T18:49:26.726Z,1.80
2023-04-02T18:52:17.480Z,1.55
2023-04-02T18:55:13.828Z,1.63
2023-04-02T18:58:05.922Z,2.08
2023-04-02T19:00:52.381Z,1.67
2023-04-02T19:03:51.532Z,1.40
2023-04-02T19:06:42.431Z,0.90
2023-04-02T19:09:32.337Z,1.42
2023-04-02T19:12:20.932Z,2.30
2023-04-02T19:15:19.364Z,1.63
2023-04-02T19:21:03.671Z,2.95
2023-04-02T19:24:13.833Z,2.88
2023-04-02T19:27:18.413Z,3.58
2023-04-02T19:30:29.812Z,3.65
2023-04-02T19:33:15.730Z,2.42
2023-04-02T19:36:20.089Z,2.78
2023-04-02T19:39:18.100Z,2.53
2023-04-02T19:42:37.872Z,1.20
2023-04-02T19:45:29.125Z,1.33
2023-04-02T19:48:19.529Z,1.83
2023-04-02T19:51:04.771Z,1.55
2023-04-02T19:53:50.776Z,1.95
2023-04-02T19:56:36.186Z,1.40
2023-04-02T19:59:21.891Z,1.70
2023-04-02T20:02:10.539Z,2.53
2023-04-02T20:04:57.038Z,2.63
2023-04-02T20:07:43.198Z,2.45
2023-04-02T20:10:28.951Z,2.42
2023-04-02T20:13:15.041Z,2.65
2023-04-02T20:16:02.359Z,2.10
2023-04-02T20:18:49.401Z,1.88
2023-04-02T20:21:38.684Z,2.35
2023-04-02T20:24:24.584Z,3.10
2023-04-02T20:27:10.315Z,1.75
2023-04-02T20:29:56.154Z,1.83
2023-04-02T20:32:42.111Z,3.25
2023-04-02T20:35:29.773Z,1.40
2023-04-02T20:38:18.221Z,1.05
2023-04-02T20:41:07.097Z,1.42
2023-04-02T20:43:53.918Z,0.90
2023-04-02T20:46:39.907Z,2.05
2023-04-02T20:49:25.680Z,1.52
2023-04-02T20:52:12.005Z,1.50
2023-04-02T20:54:57.969Z,2.38
2023-04-02T20:57:43.539Z,1.63
2023-04-02T21:00:29.510Z,1.63
2023-04-02T21:03:16.020Z,1.67
2023-04-02T21:06:02.027Z,2.33
2023-04-02T21:08:49.947Z,2.00
2023-04-02T21:11:36.561Z,2.17
2023-04-02T21:14:22.432Z,2.97
2023-04-02T21:17:08.252Z,2.85
2023-04-02T21:19:53.758Z,2.53
2023-04-02T21:22:39.632Z,2.13
2023-04-02T21:25:25.437Z,2.25
2023-04-02T21:28:11.747Z,1.20
2023-04-02T21:31:14.190Z,2.78
2023-04-02T21:34:00.151Z,2.10
2023-04-02T21:36:48.131Z,1.88
2023-04-02T21:39:34.444Z,2.03
2023-04-02T21:42:20.235Z,1.67
2023-04-02T21:45:07.039Z,1.70
2023-04-02T21:47:52.626Z,2.25
2023-04-02T21:50:38.406Z,1.42
2023-04-02T21:53:24.474Z,1.80
2023-04-02T21:56:21.505Z,2.38
2023-04-02T21:59:09.087Z,4.40
2023-04-02T22:01:55.038Z,3.20
2023-04-02T22:04:44.099Z,3.00
2023-04-02T22:07:29.743Z,3.10
2023-04-02T22:10:15.323Z,15.45
2023-04-02T22:13:00.812Z,11.88
2023-04-02T22:15:46.213Z,3.30
2023-04-02T22:18:32.360Z,13.23
2023-04-02T22:21:19.717Z,5.03
2023-04-02T22:24:09.671Z,3.63
2023-04-02T22:26:55.682Z,3.22
2023-04-02T22:29:41.391Z,2.45
2023-04-02T22:32:27.030Z,2.78
2023-04-02T22:35:12.635Z,3.92
2023-04-02T22:37:58.806Z,3.40
2023-04-02T22:40:44.533Z,2.13
2023-04-02T22:43:30.543Z,2.30
2023-04-02T22:46:18.499Z,1.85
2023-04-02T22:49:04.670Z,1.90
2023-04-02T22:51:50.787Z,1.58
2023-04-02T22:54:36.663Z,1.80
2023-04-02T22:57:22.199Z,1.67
2023-04-02T23:00:12.594Z,1.80
2023-04-02T23:02:58.385Z,2.28
2023-04-02T23:05:46.042Z,2.83
2023-04-02T23:08:31.830Z,2.22
2023-04-02T23:11:23.127Z,2.22
2023-04-02T23:14:09.595Z,2.38
2023-04-02T23:16:54.980Z,2.05
2023-04-02T23:19:40.870Z,2.05
2023-04-02T23:22:26.320Z,3.53
2023-04-02T23:25:12.000Z,2.67
2023-04-02T23:27:58.117Z,2.15
2023-04-02T23:30:44.398Z,1.95
2023-04-02T23:33:30.158Z,1.75
2023-04-02T23:36:21.636Z,2.40
2023-04-02T23:39:12.926Z,1.75
2023-04-02T23:41:59.377Z,1.20
2023-04-02T23:44:44.890Z,1.63
2023-04-02T23:47:30.718Z,1.92
2023-04-02T23:50:16.946Z,1.58
2023-04-02T23:53:02.708Z,1.17
2023-04-02T23:55:48.283Z,1.15
2023-04-02T23:58:33.499Z,0.85
